sensor_id;sensor_type;location;lat;lon;timestamp;pressure;altitude;pressure_sealevel;temperature;humidity
77110;BME280;66062;52.464;16.922;2023-12-20T00:02:08;99875.69;;;7.35;100.00
77110;BME280;66062;52.464;16.922;2023-12-20T00:04:33;99870.19;;;7.27;100.00
77110;BME280;66062;52.464;16.922;2023-12-20T00:06:59;99864.78;;;7.38;100.00
77110;BME280;66062;52.464;16.922;2023-12-20T00:09:24;99864.22;;;7.35;100.00
77110;BME280;66062;52.464;16.922;2023-12-20T00:11:50;99863.50;;;7.23;100.00
77110;BME280;66062;52.464;16.922;2023-12-20T00:14:15;99856.94;;;7.27;100.00
77110;BME280;66062;52.464;16.922;2023-12-20T00:16:40;99854.28;;;7.27;100.00
77110;BME280;66062;52.464;16.922;2023-12-20T00:19:06;99864.09;;;7.36;100.00
77110;BME280;66062;52.464;16.922;2023-12-20T00:21:31;99855.84;;;7.39;100.00
77110;BME280;66062;52.464;16.922;2023-12-20T00:23:57;99856.38;;;7.33;100.00
77110;BME280;66062;52.464;16.922;2023-12-20T00:26:22;99857.22;;;7.24;100.00
77110;BME280;66062;52.464;16.922;2023-12-20T00:28:47;99851.38;;;7.30;100.00
77110;BME280;66062;52.464;16.922;2023-12-20T00:31:13;99856.25;;;7.25;100.00
77110;BME280;66062;52.464;16.922;2023-12-20T00:33:38;99854.28;;;7.27;100.00
77110;BME280;66062;52.464;16.922;2023-12-20T00:36:05;99846.19;;;7.19;100.00
77110;BME280;66062;52.464;16.922;2023-12-20T00:38:30;99849.25;;;7.24;100.00
77110;BME280;66062;52.464;16.922;2023-12-20T00:40:56;99850.94;;;7.35;100.00
77110;BME280;66062;52.464;16.922;2023-12-20T00:43:21;99852.19;;;7.21;100.00
77110;BME280;66062;52.464;16.922;2023-12-20T00:45:47;99850.41;;;7.31;100.00
77110;BME280;66062;52.464;16.922;2023-12-20T00:48:12;99855.28;;;7.45;100.00
77110;BME280;66062;52.464;16.922;2023-12-20T00:50:37;99853.91;;;7.41;100.00
77110;BME280;66062;52.464;16.922;2023-12-20T00:53:03;99851.63;;;7.37;100.00
77110;BME280;66062;52.464;16.922;2023-12-20T00:55:28;99854.13;;;7.19;100.00
77110;BME280;66062;52.464;16.922;2023-12-20T00:57:54;99842.69;;;7.18;100.00
77110;BME280;66062;52.464;16.922;2023-12-20T01:00:19;99843.53;;;7.19;100.00
77110;BME280;66062;52.464;16.922;2023-12-20T01:02:45;99840.56;;;7.22;100.00
77110;BME280;66062;52.464;16.922;2023-12-20T01:05:12;99840.88;;;7.19;100.00
77110;BME280;66062;52.464;16.922;2023-12-20T01:07:37;99838.50;;;7.16;100.00
77110;BME280;66062;52.464;16.922;2023-12-20T01:10:03;99837.38;;;7.28;100.00
77110;BME280;66062;52.464;16.922;2023-12-20T01:12:28;99835.84;;;7.16;100.00
77110;BME280;66062;52.464;16.922;2023-12-20T01:14:54;99833.19;;;7.16;100.00
77110;BME280;66062;52.464;16.922;2023-12-20T01:17:19;99838.09;;;7.20;100.00
77110;BME280;66062;52.464;16.922;2023-12-20T01:19:44;99830.56;;;7.25;100.00
77110;BME280;66062;52.464;16.922;2023-12-20T01:22:10;99838.22;;;7.19;100.00
77110;BME280;66062;52.464;16.922;2023-12-20T01:24:35;99828.13;;;7.13;100.00
77110;BME280;66062;52.464;16.922;2023-12-20T01:27:01;99826.34;;;7.23;100.00
77110;BME280;66062;52.464;16.922;2023-12-20T01:29:26;99823.81;;;7.21;100.00
77110;BME280;66062;52.464;16.922;2023-12-20T01:31:51;99828.31;;;7.21;100.00
77110;BME280;66062;52.464;16.922;2023-12-20T01:34:17;99826.47;;;7.12;100.00
77110;BME280;66062;52.464;16.922;2023-12-20T01:36:44;99832.47;;;7.14;100.00
77110;BME280;66062;52.464;16.922;2023-12-20T01:39:09;99823.38;;;7.16;100.00
77110;BME280;66062;52.464;16.922;2023-12-20T01:41:35;99820.19;;;7.22;100.00
77110;BME280;66062;52.464;16.922;2023-12-20T01:44:00;99806.38;;;7.09;100.00
77110;BME280;66062;52.464;16.922;2023-12-20T01:46:26;99798.69;;;7.16;100.00
77110;BME280;66062;52.464;16.922;2023-12-20T01:48:51;99804.13;;;7.24;100.00
77110;BME280;66062;52.464;16.922;2023-12-20T01:51:17;99802.31;;;7.15;100.00
77110;BME280;66062;52.464;16.922;2023-12-20T01:53:43;99798.97;;;7.13;100.00
77110;BME280;66062;52.464;16.922;2023-12-20T01:56:09;99794.06;;;7.08;100.00
77110;BME280;66062;52.464;16.922;2023-12-20T01:58:39;99795.19;;;7.15;100.00
77110;BME280;66062;52.464;16.922;2023-12-20T02:01:08;99792.94;;;7.01;100.00
77110;BME280;66062;52.464;16.922;2023-12-20T02:03:34;99796.59;;;7.10;100.00
77110;BME280;66062;52.464;16.922;2023-12-20T02:06:02;99790.88;;;7.14;100.00
77110;BME280;66062;52.464;16.922;2023-12-20T02:08:28;99793.50;;;7.05;100.00
77110;BME280;66062;52.464;16.922;2023-12-20T02:10:54;99790.84;;;7.05;100.00
77110;BME280;66062;52.464;16.922;2023-12-20T02:13:20;99788.75;;;7.08;100.00
77110;BME280;66062;52.464;16.922;2023-12-20T02:15:46;99776.88;;;7.03;100.00
77110;BME280;66062;52.464;16.922;2023-12-20T02:18:12;99787.50;;;7.03;100.00
77110;BME280;66062;52.464;16.922;2023-12-20T02:20:40;99788.44;;;6.92;100.00
77110;BME280;66062;52.464;16.922;2023-12-20T02:23:06;99778.44;;;6.96;100.00
77110;BME280;66062;52.464;16.922;2023-12-20T02:25:31;99773.66;;;6.90;100.00
77110;BME280;66062;52.464;16.922;2023-12-20T02:27:57;99776.88;;;7.03;100.00
77110;BME280;66062;52.464;16.922;2023-12-20T02:30:23;99766.28;;;7.03;100.00
77110;BME280;66062;52.464;16.922;2023-12-20T02:32:49;99774.53;;;7.09;100.00
77110;BME280;66062;52.464;16.922;2023-12-20T02:35:15;99776.47;;;7.17;100.00
77110;BME280;66062;52.464;16.922;2023-12-20T02:37:40;99772.84;;;6.99;100.00
77110;BME280;66062;52.464;16.922;2023-12-20T02:40:06;99768.38;;;6.99;100.00
77110;BME280;66062;52.464;16.922;2023-12-20T02:42:32;99759.28;;;7.02;100.00
77110;BME280;66062;52.464;16.922;2023-12-20T02:44:57;99761.38;;;6.88;100.00
77110;BME280;66062;52.464;16.922;2023-12-20T02:47:24;99759.84;;;6.96;100.00
77110;BME280;66062;52.464;16.922;2023-12-20T02:49:49;99759.28;;;6.92;100.00
77110;BME280;66062;52.464;16.922;2023-12-20T02:52:15;99757.75;;;6.80;100.00
77110;BME280;66062;52.464;16.922;2023-12-20T02:54:40;99759.69;;;6.87;100.00
77110;BME280;66062;52.464;16.922;2023-12-20T02:57:05;99765.41;;;6.93;100.00
77110;BME280;66062;52.464;16.922;2023-12-20T02:59:31;99767.53;;;6.89;100.00
77110;BME280;66062;52.464;16.922;2023-12-20T03:01:57;99766.56;;;7.00;100.00
77110;BME280;66062;52.464;16.922;2023-12-20T03:04:22;99762.63;;;6.94;100.00
77110;BME280;66062;52.464;16.922;2023-12-20T03:06:47;99754.13;;;6.91;100.00
77110;BME280;66062;52.464;16.922;2023-12-20T03:09:13;99758.72;;;6.88;100.00
77110;BME280;66062;52.464;16.922;2023-12-20T03:11:39;99751.19;;;6.84;100.00
77110;BME280;66062;52.464;16.922;2023-12-20T03:14:04;99752.13;;;6.73;100.00
77110;BME280;66062;52.464;16.922;2023-12-20T03:16:29;99753.53;;;6.77;100.00
77110;BME280;66062;52.464;16.922;2023-12-20T03:18:56;99749.63;;;6.81;100.00
77110;BME280;66062;52.464;16.922;2023-12-20T03:21:22;99748.22;;;6.77;100.00
77110;BME280;66062;52.464;16.922;2023-12-20T03:23:48;99741.53;;;6.73;100.00
77110;BME280;66062;52.464;16.922;2023-12-20T03:26:13;99737.06;;;6.83;100.00
77110;BME280;66062;52.464;16.922;2023-12-20T03:28:39;99736.78;;;6.86;100.00
77110;BME280;66062;52.464;16.922;2023-12-20T03:31:04;99745.75;;;6.85;100.00
77110;BME280;66062;52.464;16.922;2023-12-20T03:33:30;99731.88;;;6.72;100.00
77110;BME280;66062;52.464;16.922;2023-12-20T03:35:55;99740.69;;;6.73;100.00
77110;BME280;66062;52.464;16.922;2023-12-20T03:38:21;99738.16;;;6.71;100.00
77110;BME280;66062;52.464;16.922;2023-12-20T03:40:49;99748.50;;;6.65;100.00
77110;BME280;66062;52.464;16.922;2023-12-20T03:43:15;99745.16;;;6.72;100.00
77110;BME280;66062;52.464;16.922;2023-12-20T03:45:42;99741.81;;;6.80;100.00
77110;BME280;66062;52.464;16.922;2023-12-20T03:48:08;99737.75;;;6.76;100.00
77110;BME280;66062;52.464;16.922;2023-12-20T03:50:34;99740.69;;;6.73;100.00
77110;BME280;66062;52.464;16.922;2023-12-20T03:53:00;99736.75;;;6.67;100.00
77110;BME280;66062;52.464;16.922;2023-12-20T03:55:25;99740.16;;;6.79;100.00
77110;BME280;66062;52.464;16.922;2023-12-20T03:57:51;99742.09;;;6.86;100.00
77110;BME280;66062;52.464;16.922;2023-12-20T04:00:16;99733.16;;;6.87;100.00
77110;BME280;66062;52.464;16.922;2023-12-20T04:02:42;99735.94;;;6.86;100.00
77110;BME280;66062;52.464;16.922;2023-12-20T04:05:08;99737.63;;;6.77;100.00
77110;BME280;66062;52.464;16.922;2023-12-20T04:07:35;99735.81;;;6.78;100.00
77110;BME280;66062;52.464;16.922;2023-12-20T04:10:01;99732.59;;;6.74;100.00
77110;BME280;66062;52.464;16.922;2023-12-20T04:12:30;99740.13;;;6.69;100.00
77110;BME280;66062;52.464;16.922;2023-12-20T04:14:58;99743.06;;;6.76;100.00
77110;BME280;66062;52.464;16.922;2023-12-20T04:17:24;99743.47;;;6.71;100.00
77110;BME280;66062;52.464;16.922;2023-12-20T04:19:50;99731.47;;;6.67;100.00
77110;BME280;66062;52.464;16.922;2023-12-20T04:22:17;99738.44;;;6.68;100.00
77110;BME280;66062;52.464;16.922;2023-12-20T04:24:42;99730.50;;;6.68;100.00
77110;BME280;66062;52.464;16.922;2023-12-20T04:27:08;99727.97;;;6.76;100.00
77110;BME280;66062;52.464;16.922;2023-12-20T04:29:34;99732.59;;;6.74;100.00
77110;BME280;66062;52.464;16.922;2023-12-20T04:31:59;99727.84;;;6.68;100.00
77110;BME280;66062;52.464;16.922;2023-12-20T04:34:25;99725.59;;;6.64;100.00
77110;BME280;66062;52.464;16.922;2023-12-20T04:36:51;99721.69;;;6.68;100.00
77110;BME280;66062;52.464;16.922;2023-12-20T04:39:16;99716.53;;;6.76;100.00
77110;BME280;66062;52.464;16.922;2023-12-20T04:41:41;99713.75;;;6.77;100.00
77110;BME280;66062;52.464;16.922;2023-12-20T04:44:07;99721.56;;;6.69;100.00
77110;BME280;66062;52.464;16.922;2023-12-20T04:46:32;99716.94;;;6.71;100.00
77110;BME280;66062;52.464;16.922;2023-12-20T04:48:58;99724.78;;;6.73;100.00
77110;BME280;66062;52.464;16.922;2023-12-20T04:51:23;99721.28;;;6.72;100.00
77110;BME280;66062;52.464;16.922;2023-12-20T04:53:49;99716.41;;;6.68;100.00
77110;BME280;66062;52.464;16.922;2023-12-20T04:56:14;99710.56;;;6.74;100.00
77110;BME280;66062;52.464;16.922;2023-12-20T04:58:40;99722.00;;;6.74;100.00
77110;BME280;66062;52.464;16.922;2023-12-20T05:01:06;99726.88;;;6.69;100.00
77110;BME280;66062;52.464;16.922;2023-12-20T05:03:31;99723.25;;;6.70;100.00
77110;BME280;66062;52.464;16.922;2023-12-20T05:05:57;99730.91;;;6.73;100.00
77110;BME280;66062;52.464;16.922;2023-12-20T05:08:22;99734.97;;;6.77;100.00
77110;BME280;66062;52.464;16.922;2023-12-20T05:10:48;99726.06;;;6.88;100.00
77110;BME280;66062;52.464;16.922;2023-12-20T05:13:13;99721.16;;;6.83;100.00
77110;BME280;66062;52.464;16.922;2023-12-20T05:15:38;99729.53;;;6.79;100.00
77110;BME280;66062;52.464;16.922;2023-12-20T05:18:04;99730.91;;;6.73;100.00
77110;BME280;66062;52.464;16.922;2023-12-20T05:20:29;99735.09;;;6.76;100.00
77110;BME280;66062;52.464;16.922;2023-12-20T05:22:55;99737.38;;;6.80;100.00
77110;BME280;66062;52.464;16.922;2023-12-20T05:25:20;99723.94;;;6.82;100.00
77110;BME280;66062;52.464;16.922;2023-12-20T05:27:45;99726.34;;;6.85;100.00
77110;BME280;66062;52.464;16.922;2023-12-20T05:30:11;99733.84;;;6.70;100.00
77110;BME280;66062;52.464;16.922;2023-12-20T05:32:36;99731.88;;;6.72;100.00
77110;BME280;66062;52.464;16.922;2023-12-20T05:35:02;99729.25;;;6.82;100.00
77110;BME280;66062;52.464;16.922;2023-12-20T05:37:28;99727.72;;;6.79;100.00
77110;BME280;66062;52.464;16.922;2023-12-20T05:39:55;99725.06;;;6.79;100.00
77110;BME280;66062;52.464;16.922;2023-12-20T05:42:20;99724.66;;;6.74;100.00
77110;BME280;66062;52.464;16.922;2023-12-20T05:44:45;99716.81;;;6.73;100.00
77110;BME280;66062;52.464;16.922;2023-12-20T05:47:11;99715.84;;;6.83;100.00
77110;BME280;66062;52.464;16.922;2023-12-20T05:49:36;99716.84;;;6.82;100.00
77110;BME280;66062;52.464;16.922;2023-12-20T05:52:05;99718.09;;;6.88;100.00
77110;BME280;66062;52.464;16.922;2023-12-20T05:54:31;99719.66;;;7.00;100.00
77110;BME280;66062;52.464;16.922;2023-12-20T05:56:57;99729.56;;;6.98;100.00
77110;BME280;66062;52.464;16.922;2023-12-20T05:59:25;99715.44;;;6.98;100.00
77110;BME280;66062;52.464;16.922;2023-12-20T06:01:50;99721.59;;;7.08;100.00
77110;BME280;66062;52.464;16.922;2023-12-20T06:04:16;99718.53;;;7.03;100.00
77110;BME280;66062;52.464;16.922;2023-12-20T06:06:42;99721.72;;;6.87;100.00
77110;BME280;66062;52.464;16.922;2023-12-20T06:09:07;99726.88;;;6.79;100.00
77110;BME280;66062;52.464;16.922;2023-12-20T06:11:33;99719.06;;;6.77;100.00
77110;BME280;66062;52.464;16.922;2023-12-20T06:13:58;99721.72;;;6.77;100.00
77110;BME280;66062;52.464;16.922;2023-12-20T06:16:23;99714.72;;;6.76;100.00
77110;BME280;66062;52.464;16.922;2023-12-20T06:18:49;99716.56;;;6.85;100.00
77110;BME280;66062;52.464;16.922;2023-12-20T06:21:15;99713.88;;;6.76;100.00
77110;BME280;66062;52.464;16.922;2023-12-20T06:23:40;99710.38;;;6.66;100.00
77110;BME280;66062;52.464;16.922;2023-12-20T06:26:07;99707.34;;;6.70;100.00
77110;BME280;66062;52.464;16.922;2023-12-20T06:28:33;99708.75;;;6.74;100.00
77110;BME280;66062;52.464;16.922;2023-12-20T06:30:58;99713.19;;;6.64;100.00
77110;BME280;66062;52.464;16.922;2023-12-20T06:33:25;99731.75;;;6.64;100.00
77110;BME280;66062;52.464;16.922;2023-12-20T06:35:51;99727.69;;;6.60;100.00
77110;BME280;66062;52.464;16.922;2023-12-20T06:38:18;99727.00;;;6.68;100.00
77110;BME280;66062;52.464;16.922;2023-12-20T06:40:43;99735.78;;;6.59;100.00
77110;BME280;66062;52.464;16.922;2023-12-20T06:43:09;99728.13;;;6.65;100.00
77110;BME280;66062;52.464;16.922;2023-12-20T06:45:34;99731.97;;;6.52;100.00
77110;BME280;66062;52.464;16.922;2023-12-20T06:47:59;99739.28;;;6.59;100.00
77110;BME280;66062;52.464;16.922;2023-12-20T06:50:25;99732.56;;;6.55;100.00
77110;BME280;66062;52.464;16.922;2023-12-20T06:52:50;99738.13;;;6.52;100.00
77110;BME280;66062;52.464;16.922;2023-12-20T06:55:16;99735.31;;;6.44;100.00
77110;BME280;66062;52.464;16.922;2023-12-20T06:57:42;99730.16;;;6.42;100.00
77110;BME280;66062;52.464;16.922;2023-12-20T07:00:08;99744.25;;;6.43;100.00
77110;BME280;66062;52.464;16.922;2023-12-20T07:02:34;99754.56;;;6.46;100.00
77110;BME280;66062;52.464;16.922;2023-12-20T07:04:59;99755.28;;;6.48;100.00
77110;BME280;66062;52.464;16.922;2023-12-20T07:07:25;99751.66;;;6.49;100.00
77110;BME280;66062;52.464;16.922;2023-12-20T07:09:51;99757.81;;;6.59;100.00
77110;BME280;66062;52.464;16.922;2023-12-20T07:12:17;99757.94;;;6.48;100.00
77110;BME280;66062;52.464;16.922;2023-12-20T07:14:45;99760.69;;;6.37;100.00
77110;BME280;66062;52.464;16.922;2023-12-20T07:17:10;99766.81;;;6.37;100.00
77110;BME280;66062;52.464;16.922;2023-12-20T07:19:41;99774.81;;;6.47;100.00
77110;BME280;66062;52.464;16.922;2023-12-20T07:22:07;99779.66;;;6.42;100.00
77110;BME280;66062;52.464;16.922;2023-12-20T07:24:33;99777.03;;;6.52;100.00
77110;BME280;66062;52.464;16.922;2023-12-20T07:27:00;99774.16;;;6.64;100.00
77110;BME280;66062;52.464;16.922;2023-12-20T07:29:26;99786.59;;;6.64;100.00
77110;BME280;66062;52.464;16.922;2023-12-20T07:31:52;99791.19;;;6.71;100.00
77110;BME280;66062;52.464;16.922;2023-12-20T07:34:22;99782.56;;;6.69;100.00
77110;BME280;66062;52.464;16.922;2023-12-20T07:36:47;99789.97;;;6.75;100.00
77110;BME280;66062;52.464;16.922;2023-12-20T07:39:13;99782.25;;;6.63;100.00
77110;BME280;66062;52.464;16.922;2023-12-20T07:41:39;99782.81;;;6.76;100.00
77110;BME280;66062;52.464;16.922;2023-12-20T07:44:04;99786.88;;;6.70;100.00
77110;BME280;66062;52.464;16.922;2023-12-20T07:46:30;99780.88;;;6.78;100.00
77110;BME280;66062;52.464;16.922;2023-12-20T07:48:55;99779.19;;;6.67;100.00
77110;BME280;66062;52.464;16.922;2023-12-20T07:51:21;99780.22;;;6.85;100.00
77110;BME280;66062;52.464;16.922;2023-12-20T07:53:47;99777.69;;;6.74;100.00
77110;BME280;66062;52.464;16.922;2023-12-20T07:56:18;99763.59;;;6.74;100.00
77110;BME280;66062;52.464;16.922;2023-12-20T07:58:44;99776.44;;;6.78;100.00
77110;BME280;66062;52.464;16.922;2023-12-20T08:01:11;99773.78;;;6.78;100.00
77110;BME280;66062;52.464;16.922;2023-12-20T08:03:37;99774.19;;;6.83;100.00
77110;BME280;66062;52.464;16.922;2023-12-20T08:06:02;99776.66;;;6.66;100.00
77110;BME280;66062;52.464;16.922;2023-12-20T08:08:28;99751.16;;;6.74;100.00
77110;BME280;66062;52.464;16.922;2023-12-20T08:10:54;99763.59;;;6.83;100.00
77110;BME280;66062;52.464;16.922;2023-12-20T08:13:19;99757.47;;;6.93;100.00
77110;BME280;66062;52.464;16.922;2023-12-20T08:15:45;99754.81;;;6.93;100.00
77110;BME280;66062;52.464;16.922;2023-12-20T08:18:10;99748.25;;;6.97;100.00
77110;BME280;66062;52.464;16.922;2023-12-20T08:20:36;99747.69;;;6.93;100.00
77110;BME280;66062;52.464;16.922;2023-12-20T08:23:01;99753.84;;;6.94;100.00
77110;BME280;66062;52.464;16.922;2023-12-20T08:25:27;99758.38;;;6.63;100.00
77110;BME280;66062;52.464;16.922;2023-12-20T08:27:52;99755.31;;;6.67;100.00
77110;BME280;66062;52.464;16.922;2023-12-20T08:30:18;99752.78;;;6.56;100.00
77110;BME280;66062;52.464;16.922;2023-12-20T08:32:47;99753.78;;;6.55;100.00
77110;BME280;66062;52.464;16.922;2023-12-20T08:35:13;99767.72;;;6.57;100.00
77110;BME280;66062;52.464;16.922;2023-12-20T08:37:38;99762.41;;;6.57;100.00
77110;BME280;66062;52.464;16.922;2023-12-20T08:40:04;99762.16;;;6.60;100.00
77110;BME280;66062;52.464;16.922;2023-12-20T08:42:30;99759.19;;;6.54;100.00
77110;BME280;66062;52.464;16.922;2023-12-20T08:44:59;99766.34;;;6.63;100.00
77110;BME280;66062;52.464;16.922;2023-12-20T08:47:25;99763.97;;;6.60;100.00
77110;BME280;66062;52.464;16.922;2023-12-20T08:49:50;99756.16;;;6.58;100.00
77110;BME280;66062;52.464;16.922;2023-12-20T08:52:16;99760.16;;;6.43;100.00
77110;BME280;66062;52.464;16.922;2023-12-20T08:54:41;99761.03;;;6.23;100.00
77110;BME280;66062;52.464;16.922;2023-12-20T08:57:07;99763.16;;;6.29;100.00
77110;BME280;66062;52.464;16.922;2023-12-20T08:59:33;99763.59;;;6.34;100.00
77110;BME280;66062;52.464;16.922;2023-12-20T09:01:58;99765.53;;;6.32;100.00
77110;BME280;66062;52.464;16.922;2023-12-20T09:04:23;99767.41;;;6.51;100.00
77110;BME280;66062;52.464;16.922;2023-12-20T09:06:49;99763.56;;;6.64;100.00
77110;BME280;66062;52.464;16.922;2023-12-20T09:09:14;99752.56;;;6.78;100.00
77110;BME280;66062;52.464;16.922;2023-12-20T09:11:40;99734.84;;;9.12;92.80
77110;BME280;66062;52.464;16.922;2023-12-20T09:14:06;99735.66;;;11.66;76.12
77110;BME280;66062;52.464;16.922;2023-12-20T09:16:31;99728.53;;;12.68;69.21
77110;BME280;66062;52.464;16.922;2023-12-20T09:18:57;99724.22;;;13.44;63.90
77110;BME280;66062;52.464;16.922;2023-12-20T09:21:22;99728.50;;;13.53;64.70
77110;BME280;66062;52.464;16.922;2023-12-20T09:23:48;99725.44;;;15.17;57.62
77110;BME280;66062;52.464;16.922;2023-12-20T09:26:13;99732.44;;;14.97;57.40
77110;BME280;66062;52.464;16.922;2023-12-20T09:28:39;99715.50;;;16.16;53.65
77110;BME280;66062;52.464;16.922;2023-12-20T09:31:06;99724.28;;;15.69;53.85
77110;BME280;66062;52.464;16.922;2023-12-20T09:33:32;99714.63;;;16.43;51.15
77110;BME280;66062;52.464;16.922;2023-12-20T09:35:57;99713.88;;;16.21;52.94
77110;BME280;66062;52.464;16.922;2023-12-20T09:38:23;99722.00;;;16.28;51.95
77110;BME280;66062;52.464;16.922;2023-12-20T09:40:48;99720.31;;;15.44;54.52
77110;BME280;66062;52.464;16.922;2023-12-20T09:43:14;99714.88;;;13.17;61.55
77110;BME280;66062;52.464;16.922;2023-12-20T09:45:46;99721.72;;;10.81;70.14
77110;BME280;66062;52.464;16.922;2023-12-20T09:48:12;99722.13;;;9.23;78.62
77110;BME280;66062;52.464;16.922;2023-12-20T09:50:40;99729.72;;;8.38;84.85
77110;BME280;66062;52.464;16.922;2023-12-20T09:53:08;99721.19;;;7.88;88.52
77110;BME280;66062;52.464;16.922;2023-12-20T09:55:36;99726.69;;;7.67;90.28
77110;BME280;66062;52.464;16.922;2023-12-20T09:58:02;99718.06;;;7.55;91.28
77110;BME280;66062;52.464;16.922;2023-12-20T10:00:27;99709.91;;;7.76;91.25
77110;BME280;66062;52.464;16.922;2023-12-20T10:02:57;99712.06;;;7.53;92.46
77110;BME280;66062;52.464;16.922;2023-12-20T10:05:32;99703.97;;;7.45;92.85
77110;BME280;66062;52.464;16.922;2023-12-20T10:07:58;99706.22;;;7.40;93.13
77110;BME280;66062;52.464;16.922;2023-12-20T10:10:24;99700.75;;;7.42;93.47
77110;BME280;66062;52.464;16.922;2023-12-20T10:13:02;99697.13;;;7.33;93.69
77110;BME280;66062;52.464;16.922;2023-12-20T10:15:28;99688.91;;;7.36;93.82
77110;BME280;66062;52.464;16.922;2023-12-20T10:17:54;99679.28;;;7.16;94.59
77110;BME280;66062;52.464;16.922;2023-12-20T10:20:20;99682.78;;;7.07;94.81
77110;BME280;66062;52.464;16.922;2023-12-20T10:22:46;99674.56;;;6.91;94.95
77110;BME280;66062;52.464;16.922;2023-12-20T10:25:12;99667.69;;;6.98;95.07
77110;BME280;66062;52.464;16.922;2023-12-20T10:27:37;99681.38;;;6.83;95.27
77110;BME280;66062;52.464;16.922;2023-12-20T10:30:03;99686.97;;;7.00;94.51
77110;BME280;66062;52.464;16.922;2023-12-20T10:32:29;99679.84;;;6.81;94.35
77110;BME280;66062;52.464;16.922;2023-12-20T10:35:04;99670.06;;;6.81;95.53
77110;BME280;66062;52.464;16.922;2023-12-20T10:37:47;99666.16;;;6.76;96.58
77110;BME280;66062;52.464;16.922;2023-12-20T10:40:13;99663.50;;;6.76;96.12
77110;BME280;66062;52.464;16.922;2023-12-20T10:42:39;99661.13;;;6.73;96.15
77110;BME280;66062;52.464;16.922;2023-12-20T10:45:06;99660.72;;;6.77;96.01
77110;BME280;66062;52.464;16.922;2023-12-20T10:47:32;99666.31;;;6.65;96.49
77110;BME280;66062;52.464;16.922;2023-12-20T10:49:59;99662.28;;;6.70;96.17
77110;BME280;66062;52.464;16.922;2023-12-20T10:52:24;99660.84;;;6.76;95.20
77110;BME280;66062;52.464;16.922;2023-12-20T10:54:52;99649.97;;;6.79;95.21
77110;BME280;66062;52.464;16.922;2023-12-20T10:57:18;99645.34;;;6.71;95.17
77110;BME280;66062;52.464;16.922;2023-12-20T10:59:45;99646.91;;;6.83;95.21
77110;BME280;66062;52.464;16.922;2023-12-20T11:02:14;99645.78;;;6.86;95.19
77110;BME280;66062;52.464;16.922;2023-12-20T11:04:56;99640.63;;;6.84;95.12
77110;BME280;66062;52.464;16.922;2023-12-20T11:07:47;99639.06;;;6.92;95.34
77110;BME280;66062;52.464;16.922;2023-12-20T11:10:24;99620.69;;;6.80;95.97
77110;BME280;66062;52.464;16.922;2023-12-20T11:12:54;99627.63;;;6.72;96.06
77110;BME280;66062;52.464;16.922;2023-12-20T11:15:22;99619.56;;;6.73;97.55
77110;BME280;66062;52.464;16.922;2023-12-20T11:17:54;99608.66;;;6.86;97.77
77110;BME280;66062;52.464;16.922;2023-12-20T11:20:37;99611.72;;;6.62;97.29
77110;BME280;66062;52.464;16.922;2023-12-20T11:23:03;99608.25;;;6.71;97.22
77110;BME280;66062;52.464;16.922;2023-12-20T11:25:29;99603.66;;;6.64;97.10
77110;BME280;66062;52.464;16.922;2023-12-20T11:28:11;99603.66;;;6.73;98.16
77110;BME280;66062;52.464;16.922;2023-12-20T11:30:46;99594.72;;;6.65;98.08
77110;BME280;66062;52.464;16.922;2023-12-20T11:33:13;99595.25;;;6.87;97.56
77110;BME280;66062;52.464;16.922;2023-12-20T11:35:39;99585.50;;;6.78;97.28
77110;BME280;66062;52.464;16.922;2023-12-20T11:38:07;99582.28;;;6.94;96.49
77110;BME280;66062;52.464;16.922;2023-12-20T11:40:34;99574.59;;;6.91;96.37
77110;BME280;66062;52.464;16.922;2023-12-20T11:43:00;99577.66;;;6.86;96.81
77110;BME280;66062;52.464;16.922;2023-12-20T11:45:25;99569.28;;;6.91;97.58
77110;BME280;66062;52.464;16.922;2023-12-20T11:47:52;99568.47;;;6.81;97.88
77110;BME280;66062;52.464;16.922;2023-12-20T11:50:22;99579.06;;;6.71;98.20
77110;BME280;66062;52.464;16.922;2023-12-20T11:52:48;99582.44;;;6.73;98.96
77110;BME280;66062;52.464;16.922;2023-12-20T11:55:14;99568.66;;;6.60;98.81
77110;BME280;66062;52.464;16.922;2023-12-20T11:57:40;99573.53;;;6.55;99.49
77110;BME280;66062;52.464;16.922;2023-12-20T12:00:06;99567.63;;;6.61;99.45
77110;BME280;66062;52.464;16.922;2023-12-20T12:02:32;99559.84;;;6.50;99.08
77110;BME280;66062;52.464;16.922;2023-12-20T12:05:01;99559.97;;;6.58;100.00
77110;BME280;66062;52.464;16.922;2023-12-20T12:07:27;99549.66;;;6.65;99.65
77110;BME280;66062;52.464;16.922;2023-12-20T12:09:52;99541.94;;;6.81;99.56
77110;BME280;66062;52.464;16.922;2023-12-20T12:12:19;99527.69;;;6.92;98.54
77110;BME280;66062;52.464;16.922;2023-12-20T12:14:45;99528.28;;;6.66;98.52
77110;BME280;66062;52.464;16.922;2023-12-20T12:17:12;99526.47;;;6.76;98.44
77110;BME280;66062;52.464;16.922;2023-12-20T12:19:38;99528.56;;;6.73;98.42
77110;BME280;66062;52.464;16.922;2023-12-20T12:22:12;99509.06;;;6.64;99.57
77110;BME280;66062;52.464;16.922;2023-12-20T12:24:46;99519.66;;;6.64;99.13
77110;BME280;66062;52.464;16.922;2023-12-20T12:27:12;99513.66;;;6.62;98.35
77110;BME280;66062;52.464;16.922;2023-12-20T12:29:38;99515.38;;;6.34;99.32
77110;BME280;66062;52.464;16.922;2023-12-20T12:32:09;99511.69;;;6.45;97.82
77110;BME280;66062;52.464;16.922;2023-12-20T12:34:35;99494.41;;;6.70;97.42
77110;BME280;66062;52.464;16.922;2023-12-20T12:37:03;99496.78;;;6.63;97.74
77110;BME280;66062;52.464;16.922;2023-12-20T12:39:29;99497.31;;;6.67;98.05
77110;BME280;66062;52.464;16.922;2023-12-20T12:41:55;99488.84;;;6.44;98.18
77110;BME280;66062;52.464;16.922;2023-12-20T12:44:21;99485.50;;;6.42;98.68
77110;BME280;66062;52.464;16.922;2023-12-20T12:46:49;99493.03;;;6.37;99.03
77110;BME280;66062;52.464;16.922;2023-12-20T12:49:20;99479.22;;;6.43;97.94